Beulah, New Mexico
Current Conditions -  °F | °C
As of 8:53 AM on Thursday 18 Dec 2014 (Local Time) from KLVS Reporting Station
Clear Clear  
Wind Chill: 27°   Ceiling: Unl
Heat Index: 33°   Visibility: 10mi
Dew Point: 23°   Wind: 7mph
Humidity: 66%   Direction: 320°NW
Pressure: 30.07"   Gusts: NA
Location:  35.7797°N, 105.164°W
Report Text: KLVS 181553Z AUTO 32006KT 10SM CLR 01/M05 A3007 RMK AO2 SLP171 T00061050
Loading
Personal Weather Stations






























Interactive Weather Map New forecast layout! Learn more

10-Day Weather Forecast

Advertisements
Track Severe Weather on mobile